createdAt,value
2019-02-22T00:02:37.997Z,98.93
2019-02-22T00:05:07.038Z,99.18
2019-02-22T00:07:35.118Z,99.44
2019-02-22T00:10:03.549Z,99.25
2019-02-22T00:12:31.846Z,99.40
2019-02-22T00:15:00.838Z,99.04
2019-02-22T00:17:28.901Z,98.70
2019-02-22T00:19:57.028Z,99.44
2019-02-22T00:22:25.054Z,100.00
2019-02-22T00:24:52.843Z,100.00
2019-02-22T00:27:20.610Z,100.00
2019-02-22T00:29:48.430Z,99.48
2019-02-22T00:32:16.296Z,100.00
2019-02-22T00:34:44.590Z,100.00
2019-02-22T00:37:12.377Z,100.00
2019-02-22T00:39:40.328Z,100.00
2019-02-22T00:42:08.251Z,100.00
2019-02-22T00:44:36.201Z,100.00
2019-02-22T00:47:03.948Z,100.00
2019-02-22T00:49:31.694Z,100.00
2019-02-22T00:51:59.593Z,100.00
2019-02-22T00:54:27.360Z,100.00
2019-02-22T00:56:55.201Z,100.00
2019-02-22T00:59:23.076Z,100.00
2019-02-22T01:01:50.983Z,100.00
2019-02-22T01:04:18.755Z,100.00
2019-02-22T01:06:46.563Z,100.00
2019-02-22T01:09:14.530Z,100.00
2019-02-22T01:11:42.463Z,100.00
2019-02-22T01:14:10.214Z,100.00
2019-02-22T01:16:38.040Z,100.00
2019-02-22T01:19:05.905Z,100.00
2019-02-22T01:21:33.734Z,100.00
2019-02-22T01:24:01.510Z,100.00
2019-02-22T01:26:29.500Z,100.00
2019-02-22T01:28:57.228Z,100.00
2019-02-22T01:31:25.361Z,100.00
2019-02-22T01:33:54.205Z,100.00
2019-02-22T01:36:23.076Z,100.00
2019-02-22T01:38:50.921Z,100.00
2019-02-22T01:41:18.768Z,100.00
2019-02-22T01:43:46.536Z,100.00
2019-02-22T01:46:14.487Z,100.00
2019-02-22T01:48:42.333Z,100.00
2019-02-22T01:51:10.247Z,100.00
2019-02-22T01:53:41.988Z,100.00
2019-02-22T01:56:09.904Z,100.00
2019-02-22T01:58:48.005Z,100.00
2019-02-22T02:01:07.683Z,100.00
2019-02-22T02:03:35.430Z,100.00
2019-02-22T02:06:03.256Z,100.00
2019-02-22T02:08:31.070Z,100.00
2019-02-22T02:10:58.837Z,100.00
2019-02-22T02:13:26.726Z,100.00
2019-02-22T02:15:54.691Z,100.00
2019-02-22T02:18:23.008Z,100.00
2019-02-22T02:20:51.793Z,100.00
2019-02-22T02:23:19.740Z,100.00
2019-02-22T02:25:47.580Z,100.00
2019-02-22T02:28:15.554Z,100.00
2019-02-22T02:30:43.524Z,100.00
2019-02-22T02:33:11.363Z,100.00
2019-02-22T02:35:39.126Z,100.00
2019-02-22T02:38:07.009Z,100.00
2019-02-22T02:40:34.859Z,100.00
2019-02-22T02:43:02.845Z,100.00
2019-02-22T02:45:30.779Z,100.00
2019-02-22T02:47:58.683Z,100.00
2019-02-22T02:50:26.405Z,100.00
2019-02-22T02:52:54.330Z,100.00
2019-02-22T02:55:38.318Z,100.00
2019-02-22T02:58:06.232Z,100.00
2019-02-22T03:00:33.984Z,100.00
2019-02-22T03:03:01.897Z,100.00
2019-02-22T03:05:44.189Z,100.00
2019-02-22T03:08:12.194Z,100.00
2019-02-22T03:10:40.172Z,100.00
2019-02-22T03:13:08.114Z,100.00
2019-02-22T03:15:36.066Z,100.00
2019-02-22T03:18:03.910Z,100.00
2019-02-22T03:20:31.816Z,100.00
2019-02-22T03:22:59.563Z,98.90
2019-02-22T03:25:27.365Z,97.49
2019-02-22T03:27:55.314Z,97.27
2019-02-22T03:30:23.216Z,97.66
2019-02-22T03:32:50.954Z,96.28
2019-02-22T03:35:18.758Z,95.85
2019-02-22T03:37:46.504Z,95.38
2019-02-22T03:40:14.435Z,95.34
2019-02-22T03:42:42.216Z,94.63
2019-02-22T03:45:10.659Z,94.64
2019-02-22T03:47:38.489Z,94.43
2019-02-22T03:50:06.500Z,93.22
2019-02-22T03:52:42.031Z,93.02
2019-02-22T03:55:10.033Z,92.10
2019-02-22T03:57:37.896Z,91.58
2019-02-22T04:00:06.877Z,92.01
2019-02-22T04:02:34.721Z,90.73
2019-02-22T04:05:02.726Z,92.17
2019-02-22T04:07:30.582Z,92.24
2019-02-22T04:09:58.617Z,91.52
2019-02-22T04:12:26.358Z,91.77
2019-02-22T04:14:54.353Z,91.91
2019-02-22T04:17:22.319Z,91.41
2019-02-22T04:19:50.138Z,89.38
2019-02-22T04:22:18.007Z,88.62
2019-02-22T04:24:45.840Z,88.64
2019-02-22T04:27:13.720Z,87.22
2019-02-22T04:29:41.744Z,88.20
2019-02-22T04:32:09.625Z,87.58
2019-02-22T04:34:37.407Z,87.35
2019-02-22T04:37:05.439Z,88.38
2019-02-22T04:39:33.213Z,86.97
2019-02-22T04:42:01.047Z,86.58
2019-02-22T04:44:28.817Z,86.75
2019-02-22T04:46:56.749Z,88.17
2019-02-22T04:49:24.627Z,87.37
2019-02-22T04:51:52.571Z,85.03
2019-02-22T04:54:20.336Z,85.97
2019-02-22T04:56:48.179Z,87.37
2019-02-22T04:59:15.958Z,85.07
2019-02-22T05:01:43.800Z,84.55
2019-02-22T05:04:11.581Z,83.10
2019-02-22T05:06:39.395Z,83.91
2019-02-22T05:09:07.230Z,82.92
2019-02-22T05:11:35.137Z,84.84
2019-02-22T05:14:02.984Z,82.43
2019-02-22T05:16:30.800Z,82.64
2019-02-22T05:18:58.653Z,82.08
2019-02-22T05:21:26.479Z,82.06
2019-02-22T05:23:54.252Z,82.09
2019-02-22T05:26:22.187Z,83.35
2019-02-22T05:28:50.193Z,82.35
2019-02-22T05:31:23.560Z,82.69
2019-02-22T05:33:51.327Z,81.94
2019-02-22T05:36:20.082Z,82.46
2019-02-22T05:38:47.837Z,82.37
2019-02-22T05:41:15.750Z,82.71
2019-02-22T05:43:43.558Z,81.34
2019-02-22T05:46:11.379Z,82.68
2019-02-22T05:48:39.236Z,82.28
2019-02-22T05:51:07.174Z,81.95
2019-02-22T05:53:35.132Z,82.14
2019-02-22T05:56:03.099Z,82.46
2019-02-22T05:58:31.108Z,83.02
2019-02-22T06:00:59.071Z,82.21
2019-02-22T06:03:26.909Z,81.86
2019-02-22T06:05:54.680Z,82.47
2019-02-22T06:08:22.549Z,82.50
2019-02-22T06:10:50.292Z,82.61
2019-02-22T06:13:18.120Z,81.43
2019-02-22T06:15:46.688Z,82.23
2019-02-22T06:18:14.515Z,81.59
2019-02-22T06:20:42.506Z,82.13
2019-02-22T06:23:10.329Z,80.79
2019-02-22T06:25:38.080Z,79.80
2019-02-22T06:28:05.900Z,80.82
2019-02-22T06:30:33.775Z,80.59
2019-02-22T06:33:07.548Z,80.92
2019-02-22T06:35:35.333Z,80.15
2019-02-22T06:38:03.269Z,79.42
2019-02-22T06:40:31.044Z,79.18
2019-02-22T06:42:59.000Z,78.87
2019-02-22T06:45:26.758Z,77.66
2019-02-22T06:47:54.622Z,78.62
2019-02-22T06:50:33.397Z,78.17
2019-02-22T06:52:54.420Z,78.68
2019-02-22T06:55:22.276Z,77.80
2019-02-22T06:57:51.111Z,79.30
2019-02-22T07:00:19.557Z,78.14
2019-02-22T07:02:47.464Z,77.87
2019-02-22T07:05:15.321Z,78.69
2019-02-22T07:07:43.076Z,78.63
2019-02-22T07:10:10.906Z,78.25
2019-02-22T07:12:41.997Z,78.84
2019-02-22T07:15:09.978Z,79.23
2019-02-22T07:17:37.881Z,79.92
2019-02-22T07:20:07.446Z,80.04
2019-02-22T07:22:35.313Z,79.02
2019-02-22T07:25:03.404Z,78.80
2019-02-22T07:27:31.150Z,78.48
2019-02-22T07:29:58.974Z,79.08
2019-02-22T07:32:26.830Z,78.26
2019-02-22T07:34:54.644Z,79.86
2019-02-22T07:37:23.014Z,77.22
2019-02-22T07:39:51.023Z,77.48
2019-02-22T07:42:18.972Z,77.05
2019-02-22T07:44:47.591Z,77.05
2019-02-22T07:47:15.405Z,77.81
2019-02-22T07:49:43.335Z,78.12
2019-02-22T07:52:11.188Z,77.45
2019-02-22T07:54:39.115Z,76.22
2019-02-22T07:57:06.883Z,75.48
2019-02-22T07:59:34.807Z,74.31
2019-02-22T08:02:02.674Z,73.70
2019-02-22T08:04:30.464Z,72.00
2019-02-22T08:06:58.208Z,72.98
2019-02-22T08:09:26.039Z,72.30
2019-02-22T08:11:53.912Z,71.18
2019-02-22T08:14:21.965Z,71.06
2019-02-22T08:16:49.744Z,70.17
2019-02-22T08:19:17.645Z,70.81
2019-02-22T08:21:45.401Z,69.34
2019-02-22T08:24:13.181Z,70.25
2019-02-22T08:26:41.086Z,69.00
2019-02-22T08:29:09.054Z,68.40
2019-02-22T08:31:37.181Z,68.26
2019-02-22T08:34:05.026Z,67.40
2019-02-22T08:36:32.825Z,67.55
2019-02-22T08:39:00.598Z,69.33
2019-02-22T08:41:28.495Z,67.49
2019-02-22T08:43:56.434Z,67.61
2019-02-22T08:46:24.238Z,67.06
2019-02-22T08:48:53.404Z,65.58
2019-02-22T08:51:21.227Z,63.96
2019-02-22T08:53:49.069Z,65.47
2019-02-22T08:56:16.985Z,63.47
2019-02-22T08:58:44.750Z,66.24
2019-02-22T09:01:12.679Z,64.34
2019-02-22T09:03:49.934Z,64.02
2019-02-22T09:06:10.231Z,64.99
2019-02-22T09:08:49.703Z,66.60
2019-02-22T09:11:17.698Z,63.84
2019-02-22T09:13:45.473Z,65.05
2019-02-22T09:16:13.369Z,66.96
2019-02-22T09:18:41.134Z,66.59
2019-02-22T09:21:09.867Z,66.60
2019-02-22T09:23:37.642Z,67.15
2019-02-22T09:26:05.759Z,64.96
2019-02-22T09:28:33.797Z,65.84
2019-02-22T09:31:01.832Z,64.07
2019-02-22T09:33:29.671Z,65.10
2019-02-22T09:35:57.706Z,64.69
2019-02-22T09:38:25.591Z,64.47
2019-02-22T09:40:53.432Z,62.10
2019-02-22T09:43:21.480Z,63.03
2019-02-22T09:45:49.353Z,59.20
2019-02-22T09:48:17.980Z,59.67
2019-02-22T09:50:46.233Z,59.32
2019-02-22T09:53:14.167Z,57.37
2019-02-22T09:55:42.010Z,53.56
2019-02-22T09:58:09.823Z,54.16
2019-02-22T10:00:37.685Z,57.33
2019-02-22T10:03:05.490Z,55.92
2019-02-22T10:05:33.259Z,55.20
2019-02-22T10:08:01.081Z,55.73
2019-02-22T10:10:32.525Z,55.46
2019-02-22T10:13:01.257Z,54.39
2019-02-22T10:15:29.639Z,53.94
2019-02-22T10:17:57.472Z,52.88
2019-02-22T10:20:25.218Z,54.72
2019-02-22T10:22:53.037Z,52.62
2019-02-22T10:25:20.820Z,53.22
2019-02-22T10:27:48.648Z,54.64
2019-02-22T10:30:17.219Z,53.76
2019-02-22T10:32:45.462Z,54.37
2019-02-22T10:35:13.203Z,54.20
2019-02-22T10:37:41.184Z,55.69
2019-02-22T10:40:09.142Z,56.70
2019-02-22T10:42:36.947Z,56.19
2019-02-22T10:45:05.292Z,56.56
2019-02-22T10:47:33.226Z,56.72
2019-02-22T10:50:01.124Z,51.74
2019-02-22T10:52:28.926Z,52.27
2019-02-22T10:54:56.694Z,55.35
2019-02-22T10:57:24.511Z,53.45
2019-02-22T10:59:52.359Z,52.30
2019-02-22T11:02:20.126Z,53.33
2019-02-22T11:04:48.629Z,53.70
2019-02-22T11:07:16.369Z,51.74
2019-02-22T11:09:44.213Z,51.39
2019-02-22T11:12:12.791Z,51.71
2019-02-22T11:14:40.696Z,51.17
2019-02-22T11:17:08.582Z,51.52
2019-02-22T11:19:37.326Z,45.19
2019-02-22T11:22:05.073Z,45.37
2019-02-22T11:24:34.125Z,44.06
2019-02-22T11:27:01.992Z,47.62
2019-02-22T11:29:29.998Z,48.46
2019-02-22T11:31:57.845Z,47.79
2019-02-22T11:34:25.742Z,47.65
2019-02-22T11:36:53.719Z,46.19
2019-02-22T11:39:21.628Z,47.18
2019-02-22T11:41:49.510Z,47.65
2019-02-22T11:44:17.404Z,45.86
2019-02-22T11:46:45.147Z,41.69
2019-02-22T11:49:13.154Z,41.95
2019-02-22T11:51:41.101Z,43.01
2019-02-22T11:54:08.927Z,44.52
2019-02-22T11:56:36.884Z,44.56
2019-02-22T11:59:04.815Z,43.93
2019-02-22T12:01:32.703Z,43.49
2019-02-22T12:04:00.519Z,41.49
2019-02-22T12:06:28.308Z,42.35
2019-02-22T12:08:56.110Z,40.52
2019-02-22T12:11:24.000Z,41.17
2019-02-22T12:13:51.973Z,41.36
2019-02-22T12:16:19.755Z,36.72
2019-02-22T12:18:47.607Z,40.55
2019-02-22T12:21:15.545Z,41.11
2019-02-22T12:23:43.333Z,40.53
2019-02-22T12:26:11.131Z,40.30
2019-02-22T12:28:38.919Z,39.00
2019-02-22T12:31:07.364Z,37.86
2019-02-22T12:33:35.843Z,35.98
2019-02-22T12:36:03.877Z,35.77
2019-02-22T12:38:31.755Z,38.13
2019-02-22T12:40:59.672Z,36.50
2019-02-22T12:43:28.130Z,34.88
2019-02-22T12:45:58.547Z,38.11
2019-02-22T12:48:26.941Z,38.18
2019-02-22T12:50:54.851Z,38.14
2019-02-22T12:53:23.323Z,38.27
2019-02-22T12:55:51.254Z,37.08
2019-02-22T12:58:19.154Z,36.37
2019-02-22T13:00:47.085Z,38.14
2019-02-22T13:03:14.991Z,38.02
2019-02-22T13:05:44.129Z,37.05
2019-02-22T13:08:11.912Z,37.04
2019-02-22T13:10:39.760Z,35.62
2019-02-22T13:13:07.714Z,36.69
2019-02-22T13:15:35.714Z,35.49
2019-02-22T13:18:03.473Z,35.96
2019-02-22T13:20:31.492Z,34.54
2019-02-22T13:22:59.342Z,35.60
2019-02-22T13:25:27.282Z,35.46
2019-02-22T13:27:55.025Z,35.35
2019-02-22T13:30:23.063Z,35.43
2019-02-22T13:32:50.831Z,34.81
2019-02-22T13:35:18.753Z,34.21
2019-02-22T13:37:46.518Z,34.49
2019-02-22T13:40:14.436Z,31.16
2019-02-22T13:42:42.401Z,32.85
2019-02-22T13:45:10.714Z,33.14
2019-02-22T13:47:38.757Z,33.51
2019-02-22T13:50:09.873Z,33.67
2019-02-22T13:52:37.647Z,34.45
2019-02-22T13:55:05.965Z,33.77
2019-02-22T13:57:33.767Z,33.06
2019-02-22T14:00:01.641Z,33.17
2019-02-22T14:02:29.635Z,33.39
2019-02-22T14:04:57.382Z,31.52
2019-02-22T14:07:25.284Z,33.94
2019-02-22T14:09:53.069Z,34.11
2019-02-22T14:12:20.877Z,33.64
2019-02-22T14:14:49.407Z,33.61
2019-02-22T14:17:17.230Z,31.38
2019-02-22T14:19:44.992Z,32.14
2019-02-22T14:22:12.794Z,32.78
2019-02-22T14:24:41.073Z,31.34
2019-02-22T14:27:08.868Z,31.85
2019-02-22T14:29:36.630Z,32.07
2019-02-22T14:32:04.722Z,31.31
2019-02-22T14:34:32.470Z,31.06
2019-02-22T14:37:00.299Z,31.67
2019-02-22T14:39:28.067Z,31.67
2019-02-22T14:41:55.999Z,32.69
2019-02-22T14:44:23.960Z,32.10
2019-02-22T14:46:51.838Z,33.13
2019-02-22T14:49:19.587Z,32.55
2019-02-22T14:51:47.516Z,30.92
2019-02-22T14:54:15.385Z,31.90
2019-02-22T14:56:43.311Z,31.34
2019-02-22T14:59:11.197Z,31.23
2019-02-22T15:01:39.080Z,30.53
2019-02-22T15:04:06.917Z,31.12
2019-02-22T15:06:35.036Z,29.71
2019-02-22T15:09:04.649Z,30.42
2019-02-22T15:11:32.578Z,31.70
2019-02-22T15:14:00.356Z,32.10
2019-02-22T15:16:46.335Z,30.13
2019-02-22T15:19:15.340Z,32.14
2019-02-22T15:21:43.342Z,31.79
2019-02-22T15:24:11.215Z,28.91
2019-02-22T15:26:39.009Z,32.94
2019-02-22T15:29:06.883Z,33.08
2019-02-22T15:31:36.425Z,33.26
2019-02-22T15:34:04.573Z,33.74
2019-02-22T15:36:32.393Z,33.77
2019-02-22T15:39:00.136Z,33.22
2019-02-22T15:41:27.884Z,33.78
2019-02-22T15:43:55.746Z,31.89
2019-02-22T15:46:23.673Z,33.68
2019-02-22T15:48:51.476Z,33.87
2019-02-22T15:51:19.433Z,34.41
2019-02-22T15:53:47.390Z,34.73
2019-02-22T15:56:18.327Z,34.05
2019-02-22T15:58:45.826Z,34.86
2019-02-22T16:01:14.587Z,34.94
2019-02-22T16:04:04.039Z,35.12
2019-02-22T16:06:32.474Z,35.81
2019-02-22T16:09:01.038Z,34.28
2019-02-22T16:11:28.994Z,36.34
2019-02-22T16:13:56.901Z,36.74
2019-02-22T16:16:24.782Z,36.02
2019-02-22T16:18:53.209Z,37.54
2019-02-22T16:21:20.974Z,37.96
2019-02-22T16:23:49.819Z,38.21
2019-02-22T16:26:22.055Z,37.65
2019-02-22T16:28:49.874Z,37.82
2019-02-22T16:31:17.821Z,38.03
2019-02-22T16:33:45.759Z,38.72
2019-02-22T16:36:13.652Z,38.71
2019-02-22T16:38:41.498Z,38.77
2019-02-22T16:41:09.444Z,38.94
2019-02-22T16:43:37.278Z,39.10
2019-02-22T16:46:05.231Z,37.97
2019-02-22T16:48:33.160Z,39.20
2019-02-22T16:51:01.111Z,39.36
2019-02-22T16:53:28.950Z,39.43
2019-02-22T16:55:57.234Z,39.23
2019-02-22T16:58:25.067Z,39.41
2019-02-22T17:00:52.891Z,39.66
2019-02-22T17:03:20.907Z,38.57
2019-02-22T17:05:48.768Z,39.56
2019-02-22T17:08:16.692Z,39.83
2019-02-22T17:10:44.474Z,40.01
2019-02-22T17:13:12.291Z,39.89
2019-02-22T17:15:40.175Z,40.17
2019-02-22T17:18:08.706Z,40.10
2019-02-22T17:20:36.573Z,40.02
2019-02-22T17:23:04.400Z,40.29
2019-02-22T17:25:39.498Z,40.69
2019-02-22T17:28:07.426Z,40.55
2019-02-22T17:30:35.211Z,40.42
2019-02-22T17:33:03.114Z,41.44
2019-02-22T17:35:30.967Z,40.99
2019-02-22T17:37:58.765Z,41.75
2019-02-22T17:40:26.720Z,41.96
2019-02-22T17:42:54.937Z,41.99
2019-02-22T17:47:47.900Z,41.86
2019-02-22T17:50:15.829Z,42.11
2019-02-22T17:52:43.598Z,42.10
2019-02-22T17:55:11.540Z,42.06
2019-02-22T17:57:39.761Z,42.28
2019-02-22T18:00:11.394Z,42.19
2019-02-22T18:02:40.060Z,41.16
2019-02-22T18:05:08.101Z,42.22
2019-02-22T18:07:36.019Z,42.40
2019-02-22T18:10:04.169Z,42.64
2019-02-22T18:12:31.984Z,42.37
2019-02-22T18:14:59.837Z,42.83
2019-02-22T18:17:29.514Z,42.75
2019-02-22T18:19:57.336Z,57.18
2019-02-22T18:22:26.201Z,57.07
2019-02-22T18:24:54.840Z,47.25
2019-02-22T18:27:34.316Z,44.12
2019-02-22T18:29:59.885Z,44.21
2019-02-22T18:32:27.668Z,44.18
2019-02-22T18:34:55.495Z,44.30
2019-02-22T18:37:23.251Z,44.54
2019-02-22T18:39:51.089Z,44.58
2019-02-22T18:42:19.074Z,44.02
2019-02-22T18:44:46.906Z,44.79
2019-02-22T18:47:19.343Z,44.89
2019-02-22T18:49:44.567Z,45.04
2019-02-22T18:52:12.417Z,45.11
2019-02-22T18:54:40.749Z,45.07
2019-02-22T18:57:08.496Z,45.01
2019-02-22T18:59:36.312Z,45.29
2019-02-22T19:02:04.184Z,45.55
2019-02-22T19:04:32.023Z,45.55
2019-02-22T19:07:01.088Z,45.76
2019-02-22T19:09:28.892Z,45.73
2019-02-22T19:11:56.634Z,45.85
2019-02-22T19:14:24.585Z,45.76
2019-02-22T19:16:52.352Z,45.76
2019-02-22T19:19:20.294Z,46.12
2019-02-22T19:21:48.118Z,45.34
2019-02-22T19:24:16.966Z,45.96
2019-02-22T19:26:44.827Z,45.96
2019-02-22T19:29:12.675Z,46.10
2019-02-22T19:31:40.541Z,46.21
2019-02-22T19:34:08.354Z,46.18
2019-02-22T19:36:36.107Z,46.08
2019-02-22T19:39:04.960Z,45.61
2019-02-22T19:41:32.701Z,46.11
2019-02-22T19:44:00.477Z,46.34
2019-02-22T19:46:28.372Z,46.36
2019-02-22T19:48:56.297Z,75.04
2019-02-22T19:51:24.110Z,63.84
2019-02-22T19:53:52.007Z,48.65
2019-02-22T19:56:19.939Z,46.78
2019-02-22T19:58:47.792Z,46.32
2019-02-22T20:01:18.930Z,46.75
2019-02-22T20:03:47.090Z,47.30
2019-02-22T20:06:15.058Z,47.05
2019-02-22T20:08:42.797Z,47.54
2019-02-22T20:11:10.978Z,47.86
2019-02-22T20:13:38.847Z,47.97
2019-02-22T20:16:06.888Z,68.62
2019-02-22T20:18:35.147Z,65.30
2019-02-22T20:21:03.262Z,48.98
2019-02-22T20:23:31.038Z,47.35
2019-02-22T20:25:58.969Z,47.51
2019-02-22T20:28:26.733Z,47.14
2019-02-22T20:30:54.595Z,47.00
2019-02-22T20:33:22.523Z,47.51
2019-02-22T20:35:50.950Z,47.98
2019-02-22T20:38:18.878Z,47.91
2019-02-22T20:40:46.947Z,48.20
2019-02-22T20:43:15.056Z,47.90
2019-02-22T20:45:42.891Z,48.56
2019-02-22T20:48:11.298Z,48.52
2019-02-22T20:50:39.435Z,48.75
2019-02-22T20:53:07.462Z,70.93
2019-02-22T20:55:35.497Z,70.65
2019-02-22T20:58:03.365Z,52.96
2019-02-22T21:00:31.304Z,48.81
2019-02-22T21:03:01.720Z,48.07
2019-02-22T21:05:29.556Z,48.44
2019-02-22T21:07:57.347Z,48.89
2019-02-22T21:10:25.357Z,49.26
2019-02-22T21:12:53.279Z,49.38
2019-02-22T21:15:21.211Z,49.82
2019-02-22T21:17:49.049Z,50.17
2019-02-22T21:20:17.454Z,50.36
2019-02-22T21:22:45.442Z,50.56
2019-02-22T21:25:13.767Z,50.70
2019-02-22T21:27:41.724Z,50.91
2019-02-22T21:30:11.643Z,51.13
2019-02-22T21:32:39.527Z,51.36
2019-02-22T21:35:08.442Z,51.56
2019-02-22T21:37:36.554Z,51.67
2019-02-22T21:40:04.853Z,51.98
2019-02-22T21:42:32.920Z,52.18
2019-02-22T21:45:01.006Z,52.30
2019-02-22T21:47:29.216Z,52.30
2019-02-22T21:49:57.332Z,52.50
2019-02-22T21:52:25.593Z,52.74
2019-02-22T21:54:53.330Z,52.83
2019-02-22T21:57:21.401Z,52.81
2019-02-22T21:59:49.436Z,52.68
2019-02-22T22:02:17.297Z,52.83
2019-02-22T22:04:45.081Z,52.82
2019-02-22T22:07:13.185Z,52.82
2019-02-22T22:09:41.041Z,52.95
2019-02-22T22:12:08.968Z,52.92
2019-02-22T22:14:36.740Z,53.11
2019-02-22T22:17:04.760Z,53.08
2019-02-22T22:19:32.660Z,53.02
2019-02-22T22:22:00.582Z,53.09
2019-02-22T22:24:28.328Z,53.18
2019-02-22T22:26:56.563Z,53.20
2019-02-22T22:29:25.121Z,53.23
2019-02-22T22:31:53.062Z,53.35
2019-02-22T22:34:20.803Z,53.48
2019-02-22T22:36:51.460Z,53.54
2019-02-22T22:39:19.221Z,53.67
2019-02-22T22:41:47.146Z,53.74
2019-02-22T22:44:15.508Z,53.78
2019-02-22T22:46:43.553Z,53.87
2019-02-22T22:49:11.392Z,54.05
2019-02-22T22:51:39.811Z,54.19
2019-02-22T22:54:07.669Z,54.21
2019-02-22T22:56:35.473Z,54.36
2019-02-22T22:59:03.488Z,54.37
2019-02-22T23:01:33.341Z,54.53
2019-02-22T23:04:01.715Z,54.50
2019-02-22T23:06:30.842Z,54.58
2019-02-22T23:08:58.686Z,54.56
2019-02-22T23:11:26.486Z,54.75
2019-02-22T23:13:54.339Z,54.74
2019-02-22T23:16:22.189Z,54.91
2019-02-22T23:19:01.143Z,55.01
2019-02-22T23:21:20.444Z,55.04
2019-02-22T23:23:48.354Z,54.98
2019-02-22T23:26:16.301Z,54.94
2019-02-22T23:28:44.337Z,55.07
2019-02-22T23:31:12.414Z,54.94
2019-02-22T23:33:40.267Z,54.97
2019-02-22T23:36:08.109Z,54.86
2019-02-22T23:38:35.963Z,71.87
2019-02-22T23:41:03.750Z,78.66
2019-02-22T23:43:31.645Z,67.36
2019-02-22T23:45:59.727Z,55.06
2019-02-22T23:48:27.595Z,53.36
2019-02-22T23:50:55.543Z,52.84
2019-02-22T23:53:23.445Z,53.26
2019-02-22T23:55:51.191Z,53.72
2019-02-22T23:58:19.008Z,53.58
